Time;durP1;ratioP1;P1;durP2;ratioP2;P2;SDS_P1;SDS_P2;PMS_P1;PMS_P2;Temp;Humidity;BMP_temperature;BMP_pressure;BME280_temperature;BME280_humidity;BME280_pressure;Samples;Min_cycle;Max_cycle;Signal;HPM_P1;HPM_P2
2023/06/06 00:01:40;;;;;;;;;;;;;;;19.79;46.32;100829.06;4971552;28;6852;-75
2023/06/06 00:04:07;;;;;;;;;;;;;;;19.75;46.58;100828.13;4984428;28;7251;-75
2023/06/06 00:06:33;;;;;;;;;;;;;;;19.73;46.80;100832.44;4952649;28;7228;-75
2023/06/06 00:08:59;;;;;;;;;;;;;;;19.71;46.60;100831.56;4987870;28;7067;-75
2023/06/06 00:11:28;;;;;;;;;;;;;;;19.67;46.93;100827.13;4970409;28;7108;-75
2023/06/06 00:13:56;;;;;;;;;;;;;;;19.64;47.11;100834.88;4972828;28;6793;-75
2023/06/06 00:16:27;;;;;;;;;;;;;;;19.60;47.23;100826.16;5003036;28;6792;-75
2023/06/06 00:18:56;;;;;;;;;;;;;;;19.58;47.69;100830.47;4999728;28;6815;-75
2023/06/06 00:21:23;;;;;;;;;;;;;;;19.54;47.69;100834.72;5007980;28;6796;-75
2023/06/06 00:23:49;;;;;;;;;;;;;;;19.51;47.65;100829.47;4979804;28;7202;-75
2023/06/06 00:26:15;;;;;;;;;;;;;;;19.48;47.98;100828.53;4969736;28;6852;-75
2023/06/06 00:28:41;;;;;;;;;;;;;;;19.44;48.06;100830.22;4991769;28;7382;-75
2023/06/06 00:31:06;;;;;;;;;;;;;;;19.40;48.08;100831.88;4978897;28;6971;-75
2023/06/06 00:33:32;;;;;;;;;;;;;;;19.38;48.30;100832.69;4972440;28;6840;-75
2023/06/06 00:35:57;;;;;;;;;;;;;;;19.34;48.47;100825.69;4969304;28;7058;-76
2023/06/06 00:38:23;;;;;;;;;;;;;;;19.33;48.30;100836.94;4974187;28;7592;-75
2023/06/06 00:40:49;;;;;;;;;;;;;;;19.29;48.84;100833.41;4974084;28;6872;-75
2023/06/06 00:43:15;;;;;;;;;;;;;;;19.26;48.69;100835.91;4970508;28;6780;-75
2023/06/06 00:45:41;;;;;;;;;;;;;;;19.22;48.83;100832.41;4967422;28;7299;-75
2023/06/06 00:48:07;;;;;;;;;;;;;;;19.19;49.06;100842.72;4954091;28;6972;-75
2023/06/06 00:50:35;;;;;;;;;;;;;;;19.15;48.73;100836.59;5001106;28;6950;-75
2023/06/06 00:53:03;;;;;;;;;;;;;;;19.11;49.22;100833.91;4999936;28;6795;-75
2023/06/06 00:55:31;;;;;;;;;;;;;;;19.07;48.80;100832.09;4971972;28;7010;-75
2023/06/06 00:57:59;;;;;;;;;;;;;;;19.03;49.43;100832.91;4969685;28;6803;-75
2023/06/06 01:00:28;;;;;;;;;;;;;;;18.97;49.25;100842.28;4986284;28;6987;-75
2023/06/06 01:02:54;;;;;;;;;;;;;;;18.93;50.04;100837.88;4968594;28;6792;-75
2023/06/06 01:05:20;;;;;;;;;;;;;;;18.92;49.87;100835.22;4971452;28;7379;-75
2023/06/06 01:07:50;;;;;;;;;;;;;;;18.87;49.61;100836.00;4967757;28;6832;-76
2023/06/06 01:10:17;;;;;;;;;;;;;;;18.85;50.26;100834.22;4989728;28;6979;-75
2023/06/06 01:12:55;;;;;;;;;;;;;;;18.80;49.91;100835.84;5001058;28;7209;-75
2023/06/06 01:15:59;;;;;;;;;;;;;;;18.76;50.61;100831.44;4994446;28;7171;-75
2023/06/06 01:18:26;;;;;;;;;;;;;;;18.68;49.76;100834.75;4986900;28;7262;-75
2023/06/06 01:20:52;;;;;;;;;;;;;;;18.63;50.12;100831.16;4982960;28;10489;-75
2023/06/06 01:23:18;;;;;;;;;;;;;;;18.58;50.89;100838.84;4972650;28;6815;-76
2023/06/06 01:25:47;;;;;;;;;;;;;;;18.54;50.16;100836.16;4971435;28;6991;-75
2023/06/06 01:28:16;;;;;;;;;;;;;;;18.49;50.46;100841.22;4950775;28;7050;-75
2023/06/06 01:30:44;;;;;;;;;;;;;;;18.42;50.97;100837.63;4970605;28;7047;-75
2023/06/06 01:33:22;;;;;;;;;;;;;;;18.39;51.33;100832.38;4999723;28;6816;-75
2023/06/06 01:36:37;;;;;;;;;;;;;;;18.34;51.26;100831.38;4999557;28;6995;-75
2023/06/06 01:39:17;;;;;;;;;;;;;;;18.29;51.60;100833.88;5001400;28;7466;-76
2023/06/06 01:41:47;;;;;;;;;;;;;;;18.26;51.38;100830.34;4980348;28;7138;-75
2023/06/06 01:44:15;;;;;;;;;;;;;;;18.21;51.32;100832.84;4979763;28;6979;-76
2023/06/06 01:46:41;;;;;;;;;;;;;;;18.15;51.31;100823.19;4949404;28;6980;-75
2023/06/06 01:49:08;;;;;;;;;;;;;;;18.11;51.60;100831.75;5002003;28;8530;-76
2023/06/06 01:51:34;;;;;;;;;;;;;;;18.06;51.66;100822.97;4996478;28;6856;-75
2023/06/06 01:54:00;;;;;;;;;;;;;;;18.05;52.04;100836.75;4949450;28;7408;-75
2023/06/06 01:56:26;;;;;;;;;;;;;;;17.99;51.74;100832.28;4966398;28;6772;-75
2023/06/06 01:58:52;;;;;;;;;;;;;;;17.95;51.92;100835.66;4951765;28;7289;-75
2023/06/06 02:01:18;;;;;;;;;;;;;;;17.92;52.25;100835.59;4963843;28;7187;-75
2023/06/06 02:03:44;;;;;;;;;;;;;;;17.89;52.08;100841.56;4972679;28;6764;-75
2023/06/06 02:06:10;;;;;;;;;;;;;;;17.84;52.14;100835.38;5002306;28;6840;-75
2023/06/06 02:08:35;;;;;;;;;;;;;;;17.82;52.16;100839.66;4984898;28;7129;-75
2023/06/06 02:11:01;;;;;;;;;;;;;;;17.79;52.43;100834.41;4971144;28;7114;-73
2023/06/06 02:13:27;;;;;;;;;;;;;;;17.76;52.17;100836.88;4989730;28;6829;-75
2023/06/06 02:15:53;;;;;;;;;;;;;;;17.72;52.54;100840.25;4971809;28;7058;-75
2023/06/06 02:18:19;;;;;;;;;;;;;;;17.68;52.26;100838.44;4961915;28;6772;-73
2023/06/06 02:20:45;;;;;;;;;;;;;;;17.64;52.63;100837.47;4958945;28;6772;-75
2023/06/06 02:23:10;;;;;;;;;;;;;;;17.60;52.77;100839.09;4981551;28;6772;-73
2023/06/06 02:25:37;;;;;;;;;;;;;;;17.55;53.07;100834.63;4947841;28;7117;-73
2023/06/06 02:28:04;;;;;;;;;;;;;;;17.53;52.75;100839.78;4979825;28;7027;-72
2023/06/06 02:30:30;;;;;;;;;;;;;;;17.48;53.11;100838.78;4955872;28;6958;-74
2023/06/06 02:32:56;;;;;;;;;;;;;;;17.44;53.09;100843.00;4963771;28;6852;-74
2023/06/06 02:35:22;;;;;;;;;;;;;;;17.41;53.21;100842.03;4964731;28;6804;-74
2023/06/06 02:37:48;;;;;;;;;;;;;;;17.38;53.16;100840.25;4977164;28;6862;-75
2023/06/06 02:40:14;;;;;;;;;;;;;;;17.36;53.52;100836.75;4962069;28;7238;-73
2023/06/06 02:42:40;;;;;;;;;;;;;;;17.33;53.68;100844.41;4974633;28;7211;-73
2023/06/06 02:45:08;;;;;;;;;;;;;;;17.29;53.61;100847.75;4957048;28;6768;-73
2023/06/06 02:47:34;;;;;;;;;;;;;;;17.27;53.89;100846.84;4973122;28;6988;-74
2023/06/06 02:50:00;;;;;;;;;;;;;;;17.23;53.72;100843.28;4946192;28;7232;-79
2023/06/06 02:52:28;;;;;;;;;;;;;;;17.22;53.69;100846.72;4942312;28;8750;-79
2023/06/06 02:54:54;;;;;;;;;;;;;;;17.18;54.00;100850.03;4956148;28;7259;-75
2023/06/06 02:57:21;;;;;;;;;;;;;;;17.15;53.58;100850.84;4957821;28;6784;-76
2023/06/06 02:59:47;;;;;;;;;;;;;;;17.12;54.09;100845.56;4984117;28;7229;-77
2023/06/06 03:02:18;;;;;;;;;;;;;;;17.10;53.92;100846.38;4957834;28;6784;-77
2023/06/06 03:04:44;;;;;;;;;;;;;;;17.06;53.86;100854.03;4962879;28;7247;-77
2023/06/06 03:07:11;;;;;;;;;;;;;;;17.03;54.23;100851.38;4948519;28;8611;-76
2023/06/06 03:09:37;;;;;;;;;;;;;;;16.99;54.52;100853.81;4979303;28;6929;-77
2023/06/06 03:12:04;;;;;;;;;;;;;;;16.95;54.11;100847.66;4987076;28;7291;-77
2023/06/06 03:14:30;;;;;;;;;;;;;;;16.91;54.65;100857.03;4959691;28;6965;-78
2023/06/06 03:16:56;;;;;;;;;;;;;;;16.89;54.25;100852.66;4960121;28;6776;-78
2023/06/06 03:19:23;;;;;;;;;;;;;;;16.85;54.39;100850.81;4992463;28;6985;-77
2023/06/06 03:21:49;;;;;;;;;;;;;;;16.82;54.72;100858.50;4962477;28;6977;-77
2023/06/06 03:24:15;;;;;;;;;;;;;;;16.79;54.59;100852.38;4987766;28;6852;-78
2023/06/06 03:26:46;;;;;;;;;;;;;;;16.77;54.62;100859.22;4983202;28;6969;-77
2023/06/06 03:29:13;;;;;;;;;;;;;;;16.75;54.69;100857.41;4974797;28;7032;-78
2023/06/06 03:31:41;;;;;;;;;;;;;;;16.74;54.58;100858.25;4985558;28;7460;-79
2023/06/06 03:34:06;;;;;;;;;;;;;;;16.73;55.05;100865.16;4975321;28;7216;-79
2023/06/06 03:36:34;;;;;;;;;;;;;;;16.72;54.76;100870.28;4965238;28;6960;-75
2023/06/06 03:39:03;;;;;;;;;;;;;;;16.69;54.93;100859.84;4981690;28;6796;-78
2023/06/06 03:41:30;;;;;;;;;;;;;;;16.69;55.20;100857.25;4973443;28;7322;-79
2023/06/06 03:43:56;;;;;;;;;;;;;;;16.66;55.46;100851.16;4985301;28;6836;-77
2023/06/06 03:46:23;;;;;;;;;;;;;;;16.67;55.71;100857.19;4963229;28;7984;-79
2023/06/06 03:48:48;;;;;;;;;;;;;;;16.67;55.06;100857.19;4999837;28;7675;-75
2023/06/06 03:51:14;;;;;;;;;;;;;;;16.68;55.56;100864.13;4965282;28;6808;-77
2023/06/06 03:53:41;;;;;;;;;;;;;;;16.69;55.75;100859.84;4950226;28;10261;-76
2023/06/06 03:56:07;;;;;;;;;;;;;;;16.69;55.72;100860.69;4960819;28;6847;-79
2023/06/06 03:58:32;;;;;;;;;;;;;;;16.72;55.70;100862.50;4982753;28;7152;-78
2023/06/06 04:00:58;;;;;;;;;;;;;;;16.73;55.36;100865.16;4986838;28;6970;-77
2023/06/06 04:03:26;;;;;;;;;;;;;;;16.75;55.81;100855.72;4954274;28;8756;-76
2023/06/06 04:05:53;;;;;;;;;;;;;;;16.78;55.54;100855.78;4998146;28;6804;-78
2023/06/06 04:08:19;;;;;;;;;;;;;;;16.82;55.63;100859.34;4962945;28;6943;-78
2023/06/06 04:10:45;;;;;;;;;;;;;;;16.85;55.76;100858.56;4970289;28;6970;-76
2023/06/06 04:13:11;;;;;;;;;;;;;;;16.87;55.55;100862.09;4997975;28;7102;-78
2023/06/06 04:15:36;;;;;;;;;;;;;;;16.91;55.82;100859.63;4967264;28;7049;-78
2023/06/06 04:18:04;;;;;;;;;;;;;;;17.02;56.14;100860.00;4970724;28;8149;-78
2023/06/06 04:20:32;;;;;;;;;;;;;;;17.22;56.93;100872.63;4972795;28;6775;-78
2023/06/06 04:23:02;;;;;;;;;;;;;;;17.45;57.06;100873.25;4969985;28;6804;-78
2023/06/06 04:25:28;;;;;;;;;;;;;;;17.71;56.78;100872.19;4972548;28;6986;-78
2023/06/06 04:27:55;;;;;;;;;;;;;;;17.94;56.70;100874.50;5001482;28;7617;-78
2023/06/06 04:30:22;;;;;;;;;;;;;;;18.13;56.21;100876.75;5003538;28;7069;-78
2023/06/06 04:32:51;;;;;;;;;;;;;;;18.36;56.38;100865.16;4998682;28;6816;-77
2023/06/06 04:35:16;;;;;;;;;;;;;;;18.59;55.78;100870.88;4999982;28;6795;-78
2023/06/06 04:37:43;;;;;;;;;;;;;;;18.84;55.19;100863.66;4969022;28;7870;-78
2023/06/06 04:40:10;;;;;;;;;;;;;;;19.04;54.77;100868.41;4972169;28;7019;-76
2023/06/06 04:42:37;;;;;;;;;;;;;;;19.19;53.89;100866.09;4987636;28;7054;-78
2023/06/06 04:45:03;;;;;;;;;;;;;;;19.33;53.64;100870.72;4986431;28;6776;-78
2023/06/06 04:47:31;;;;;;;;;;;;;;;19.48;53.16;100860.59;4968496;28;7165;-78
2023/06/06 04:49:58;;;;;;;;;;;;;;;19.62;52.75;100863.44;4984456;28;7305;-78
2023/06/06 04:52:24;;;;;;;;;;;;;;;19.74;52.32;100867.09;4954609;28;6975;-78
2023/06/06 04:54:51;;;;;;;;;;;;;;;19.84;52.07;100862.09;4993279;28;6808;-77
2023/06/06 04:57:19;;;;;;;;;;;;;;;19.94;51.74;100859.69;4981076;28;7140;-78
2023/06/06 04:59:51;;;;;;;;;;;;;;;20.03;51.27;100862.44;4965502;28;7018;-77
2023/06/06 05:02:28;;;;;;;;;;;;;;;20.15;51.31;100858.28;4965426;28;6804;-78
2023/06/06 05:05:02;;;;;;;;;;;;;;;20.26;51.07;100851.50;4965110;28;6812;-75
2023/06/06 05:07:28;;;;;;;;;;;;;;;20.38;51.09;100851.72;4968182;28;6988;-78
2023/06/06 05:09:55;;;;;;;;;;;;;;;20.46;50.50;100848.31;4999705;28;9231;-77
2023/06/06 05:12:21;;;;;;;;;;;;;;;20.51;49.93;100859.69;4968671;28;7003;-78
2023/06/06 05:14:49;;;;;;;;;;;;;;;20.53;50.22;100855.38;4996278;28;7074;-77
2023/06/06 05:17:26;;;;;;;;;;;;;;;20.59;49.83;100871.09;4966559;28;6788;-78
2023/06/06 05:19:51;;;;;;;;;;;;;;;20.67;49.73;100868.59;4962819;28;6808;-79
2023/06/06 05:22:18;;;;;;;;;;;;;;;20.76;49.53;100870.44;4992338;28;6784;-76
2023/06/06 05:24:44;;;;;;;;;;;;;;;20.83;49.38;100867.09;4994047;28;6791;-77
2023/06/06 05:27:10;;;;;;;;;;;;;;;20.93;48.94;100868.97;4964639;28;7131;-77
2023/06/06 05:29:37;;;;;;;;;;;;;;;20.99;48.84;100869.91;4944205;28;7193;-77
2023/06/06 05:32:04;;;;;;;;;;;;;;;21.03;48.72;100869.06;4962637;28;7007;-77
2023/06/06 05:34:30;;;;;;;;;;;;;;;21.08;48.60;100870.03;4965646;28;6791;-78
2023/06/06 05:36:56;;;;;;;;;;;;;;;21.13;48.70;100865.72;4965367;28;6796;-77
2023/06/06 05:39:24;;;;;;;;;;;;;;;21.17;48.35;100867.53;4968509;28;6784;-77
2023/06/06 05:41:54;;;;;;;;;;;;;;;21.26;48.37;100868.50;4995701;28;6796;-76
2023/06/06 05:44:23;;;;;;;;;;;;;;;21.36;48.10;100871.19;4997996;28;6998;-77
2023/06/06 05:46:54;;;;;;;;;;;;;;;21.42;47.75;100878.22;4983474;28;6988;-75
2023/06/06 05:49:20;;;;;;;;;;;;;;;21.43;47.51;100882.56;4993785;28;6804;-78
2023/06/06 05:51:47;;;;;;;;;;;;;;;21.39;47.32;100878.19;4966391;28;6812;-78
2023/06/06 05:54:16;;;;;;;;;;;;;;;21.34;47.18;100883.34;4953671;28;6797;-77
2023/06/06 05:56:42;;;;;;;;;;;;;;;21.26;47.02;100879.78;4965811;28;6792;-78
2023/06/06 05:59:08;;;;;;;;;;;;;;;21.13;46.97;100880.50;4950131;28;6970;-78
2023/06/06 06:01:33;;;;;;;;;;;;;;;20.98;46.94;100875.97;4961642;28;6796;-78
2023/06/06 06:03:59;;;;;;;;;;;;;;;20.79;46.61;100876.56;4990881;28;6989;-78
2023/06/06 06:06:25;;;;;;;;;;;;;;;20.64;46.83;100881.59;4979962;28;6989;-79
2023/06/06 06:08:51;;;;;;;;;;;;;;;20.46;47.11;100879.56;4966063;28;6991;-78
2023/06/06 06:11:18;;;;;;;;;;;;;;;20.32;47.14;100882.84;4994909;28;6986;-78
2023/06/06 06:13:44;;;;;;;;;;;;;;;20.18;47.10;100889.53;4994899;28;6986;-77
2023/06/06 06:16:09;;;;;;;;;;;;;;;20.03;47.63;100885.88;4962771;28;6776;-78
2023/06/06 06:18:35;;;;;;;;;;;;;;;19.95;47.80;100885.75;4991376;28;7935;-76
2023/06/06 06:21:01;;;;;;;;;;;;;;;19.90;47.98;100887.34;4966130;28;6784;-78
2023/06/06 06:23:27;;;;;;;;;;;;;;;19.88;48.38;100885.56;4989956;28;6768;-79
2023/06/06 06:25:53;;;;;;;;;;;;;;;19.87;48.54;100886.41;4991086;28;6947;-78
2023/06/06 06:28:24;;;;;;;;;;;;;;;19.84;48.64;100890.72;4962130;28;6788;-78
2023/06/06 06:30:49;;;;;;;;;;;;;;;19.85;48.52;100889.84;4989473;28;6808;-77
2023/06/06 06:33:16;;;;;;;;;;;;;;;19.87;48.62;100895.09;4949564;28;7248;-76
2023/06/06 06:35:43;;;;;;;;;;;;;;;19.90;48.88;100904.69;4957440;28;6788;-76
2023/06/06 06:38:09;;;;;;;;;;;;;;;19.95;48.91;100897.84;4992395;28;6990;-78
2023/06/06 06:40:34;;;;;;;;;;;;;;;19.98;48.98;100888.38;4944400;28;7241;-77
2023/06/06 06:43:00;;;;;;;;;;;;;;;20.01;49.24;100895.38;4958534;28;7186;-76
2023/06/06 06:45:26;;;;;;;;;;;;;;;20.05;48.90;100898.91;4991195;28;7209;-78
2023/06/06 06:47:52;;;;;;;;;;;;;;;20.06;48.71;100895.44;4968802;28;7256;-74
2023/06/06 06:50:18;;;;;;;;;;;;;;;20.03;48.31;100897.97;4968771;28;6780;-76
2023/06/06 06:52:44;;;;;;;;;;;;;;;20.03;48.85;100896.25;4964747;28;8000;-74
2023/06/06 06:55:10;;;;;;;;;;;;;;;20.09;49.03;100903.28;4961600;28;6768;-76
2023/06/06 06:57:38;;;;;;;;;;;;;;;20.24;49.39;100900.97;4961436;28;6844;-75
2023/06/06 07:00:15;;;;;;;;;;;;;;;20.50;49.50;100897.00;4970168;28;7024;-77
2023/06/06 07:02:42;;;;;;;;;;;;;;;20.81;50.02;100897.44;4989512;28;12700;-77
2023/06/06 07:05:09;;;;;;;;;;;;;;;21.16;49.77;100898.78;4958968;28;6803;-77
2023/06/06 07:07:46;;;;;;;;;;;;;;;21.56;49.73;100899.22;4961410;28;6991;-75
2023/06/06 07:10:17;;;;;;;;;;;;;;;21.98;48.78;100904.00;4960142;28;7432;-77
2023/06/06 07:12:49;;;;;;;;;;;;;;;22.34;48.17;100890.38;4976706;28;7186;-77
2023/06/06 07:15:15;;;;;;;;;;;;;;;22.67;47.70;100895.84;4958030;28;6784;-77
2023/06/06 07:17:49;;;;;;;;;;;;;;;22.99;47.42;100899.47;4955530;28;6857;-74
2023/06/06 07:20:18;;;;;;;;;;;;;;;23.28;46.25;100901.38;4987915;28;7118;-77
2023/06/06 07:22:43;;;;;;;;;;;;;;;23.49;45.82;100899.69;4977092;28;7273;-76
2023/06/06 07:25:09;;;;;;;;;;;;;;;23.67;45.22;100891.88;4989570;28;6940;-77
2023/06/06 07:27:37;;;;;;;;;;;;;;;23.87;45.15;100893.63;4990938;28;7102;-77
2023/06/06 07:30:14;;;;;;;;;;;;;;;24.07;44.76;100890.16;4945218;28;7322;-77
2023/06/06 07:32:46;;;;;;;;;;;;;;;24.26;43.88;100889.28;4958151;28;11945;-76
2023/06/06 07:35:15;;;;;;;;;;;;;;;24.50;44.17;100892.72;4964325;28;6800;-77
2023/06/06 07:37:41;;;;;;;;;;;;;;;24.77;43.49;100896.16;4969890;28;6804;-74
2023/06/06 07:40:10;;;;;;;;;;;;;;;25.00;42.72;100882.09;4998829;28;6780;-77
2023/06/06 07:42:36;;;;;;;;;;;;;;;25.12;42.60;100885.56;4992646;28;7243;-77
2023/06/06 07:45:06;;;;;;;;;;;;;;;25.27;42.20;100895.13;4957478;28;6772;-77
2023/06/06 07:47:31;;;;;;;;;;;;;;;25.41;41.95;100893.28;4991649;28;6808;-77
2023/06/06 07:49:57;;;;;;;;;;;;;;;25.52;41.30;100893.25;4987921;28;6791;-77
2023/06/06 07:52:24;;;;;;;;;;;;;;;25.72;41.50;100887.00;4993615;28;7216;-77
2023/06/06 07:54:50;;;;;;;;;;;;;;;25.99;41.24;100893.78;4969047;28;6808;-77
2023/06/06 07:57:16;;;;;;;;;;;;;;;26.26;40.45;100883.94;4990838;28;6780;-77
2023/06/06 07:59:45;;;;;;;;;;;;;;;26.46;40.03;100883.75;4988812;28;7128;-77
2023/06/06 08:02:14;;;;;;;;;;;;;;;26.59;39.50;100883.59;4977044;28;6888;-77
2023/06/06 08:04:42;;;;;;;;;;;;;;;26.62;39.23;100881.81;4946787;28;7102;-78
2023/06/06 08:07:09;;;;;;;;;;;;;;;26.65;39.26;100875.63;4987599;28;6873;-77
2023/06/06 08:09:35;;;;;;;;;;;;;;;26.72;38.68;100886.97;4960512;28;7891;-78
2023/06/06 08:12:01;;;;;;;;;;;;;;;26.75;38.72;100881.66;4955779;28;6814;-78
2023/06/06 08:14:29;;;;;;;;;;;;;;;26.87;38.59;100880.66;4967715;28;6888;-78
2023/06/06 08:16:54;;;;;;;;;;;;;;;27.03;38.74;100873.47;4989055;28;7468;-78
2023/06/06 08:19:20;;;;;;;;;;;;;;;27.31;38.28;100870.47;4963098;28;7049;-78
2023/06/06 08:21:46;;;;;;;;;;;;;;;27.53;37.69;100871.00;4992085;28;6915;-77
2023/06/06 08:24:11;;;;;;;;;;;;;;;27.56;37.67;100873.63;4988331;28;7122;-77
2023/06/06 08:26:37;;;;;;;;;;;;;;;27.64;37.33;100876.13;4975384;28;6996;-78
2023/06/06 08:29:02;;;;;;;;;;;;;;;27.90;37.57;100874.84;4994938;28;6763;-79
2023/06/06 08:31:29;;;;;;;;;;;;;;;28.13;36.78;100871.81;4981017;28;7119;-78
2023/06/06 08:33:55;;;;;;;;;;;;;;;28.30;36.40;100865.41;4996362;28;6800;-79
2023/06/06 08:36:21;;;;;;;;;;;;;;;28.54;36.59;100871.97;4965625;28;6904;-79
2023/06/06 08:38:47;;;;;;;;;;;;;;;28.82;35.98;100865.25;4967269;28;6961;-78
2023/06/06 08:41:14;;;;;;;;;;;;;;;29.17;36.14;100868.94;4960617;28;7951;-78
2023/06/06 08:43:40;;;;;;;;;;;;;;;29.62;35.37;100864.41;4996359;28;6930;-79
2023/06/06 08:46:06;;;;;;;;;;;;;;;29.98;35.32;100874.97;4968083;28;6825;-78
2023/06/06 08:48:35;;;;;;;;;;;;;;;30.37;34.28;100865.16;4967156;28;7101;-78
2023/06/06 08:51:03;;;;;;;;;;;;;;;30.74;34.00;100862.38;4996352;28;7203;-79
2023/06/06 08:53:30;;;;;;;;;;;;;;;31.14;33.50;100865.59;4993101;28;6934;-79
2023/06/06 08:55:57;;;;;;;;;;;;;;;31.45;32.96;100869.09;4980656;28;6975;-79
2023/06/06 08:58:23;;;;;;;;;;;;;;;31.56;32.42;100855.47;4994663;28;6834;-75
2023/06/06 09:00:50;;;;;;;;;;;;;;;31.56;32.14;100861.66;4958838;28;7080;-75
2023/06/06 09:03:19;;;;;;;;;;;;;;;31.55;31.92;100864.34;4964440;28;7280;-75
2023/06/06 09:05:49;;;;;;;;;;;;;;;31.70;32.03;100862.97;4958596;28;7218;-78
2023/06/06 09:08:19;;;;;;;;;;;;;;;32.04;31.68;100863.63;4963396;28;7906;-75
2023/06/06 09:10:44;;;;;;;;;;;;;;;32.28;31.10;100864.56;4993006;28;6991;-77
2023/06/06 09:13:10;;;;;;;;;;;;;;;32.38;30.51;100863.31;4989267;28;7402;-77
2023/06/06 09:15:35;;;;;;;;;;;;;;;32.37;30.66;100861.59;4960713;28;7395;-77
2023/06/06 09:18:01;;;;;;;;;;;;;;;32.37;30.70;100860.75;4964674;28;7002;-76
2023/06/06 09:20:27;;;;;;;;;;;;;;;32.32;30.26;100857.34;4967260;28;7153;-74
2023/06/06 09:22:54;;;;;;;;;;;;;;;32.39;30.22;100858.91;4994197;28;6775;-77
2023/06/06 09:25:23;;;;;;;;;;;;;;;32.44;29.68;100854.28;4992895;28;6836;-76
2023/06/06 09:28:01;;;;;;;;;;;;;;;32.43;29.62;100855.19;4964159;28;6796;-77
2023/06/06 09:30:31;;;;;;;;;;;;;;;32.52;29.86;100854.88;4979749;28;7140;-77
2023/06/06 09:33:01;;;;;;;;;;;;;;;32.65;29.54;100852.63;4990638;28;6783;-74
2023/06/06 09:35:41;;;;;;;;;;;;;;;32.96;29.58;100859.44;4960076;28;7292;-75
2023/06/06 09:38:19;;;;;;;;;;;;;;;33.24;29.39;100858.34;4979125;28;7026;-76
2023/06/06 09:40:52;;;;;;;;;;;;;;;33.36;28.83;100851.69;4993534;28;6824;-77
2023/06/06 09:43:26;;;;;;;;;;;;;;;33.36;28.64;100862.28;4993904;28;6792;-77
2023/06/06 09:45:58;;;;;;;;;;;;;;;33.25;28.10;100856.56;4977693;28;6859;-74
2023/06/06 09:48:28;;;;;;;;;;;;;;;33.16;28.08;100855.13;4941568;28;8566;-76
2023/06/06 09:50:55;;;;;;;;;;;;;;;33.07;28.56;100855.50;4954531;28;6828;-75
2023/06/06 09:53:29;;;;;;;;;;;;;;;32.94;28.15;100849.81;4990647;28;6876;-74
2023/06/06 09:56:02;;;;;;;;;;;;;;;32.97;28.17;100852.34;4962697;28;6784;-76
2023/06/06 09:58:34;;;;;;;;;;;;;;;33.03;28.17;100843.28;4986146;28;6808;-73
2023/06/06 10:01:02;;;;;;;;;;;;;;;33.10;27.95;100839.47;4981115;28;7068;-74
2023/06/06 10:03:30;;;;;;;;;;;;;;;33.18;27.61;100836.50;4982876;28;6792;-73
2023/06/06 10:05:56;;;;;;;;;;;;;;;33.07;27.13;100845.75;5008639;28;6877;-73
2023/06/06 10:08:23;;;;;;;;;;;;;;;32.91;27.24;100839.28;4975382;28;6950;-74
2023/06/06 10:10:50;;;;;;;;;;;;;;;32.77;27.48;100838.03;4988525;28;7139;-74
2023/06/06 10:13:22;;;;;;;;;;;;;;;32.68;27.64;100835.72;5003271;28;6799;-74
2023/06/06 10:15:49;;;;;;;;;;;;;;;32.82;27.59;100837.84;4972750;28;6800;-74
2023/06/06 10:18:16;;;;;;;;;;;;;;;32.87;27.03;100833.22;4974766;28;6836;-74
2023/06/06 10:20:46;;;;;;;;;;;;;;;33.01;27.27;100845.97;4987441;28;7048;-74
2023/06/06 10:23:12;;;;;;;;;;;;;;;33.29;27.16;100838.72;4972145;28;7034;-74
2023/06/06 10:25:38;;;;;;;;;;;;;;;33.57;27.28;100835.81;4973606;28;6931;-74
2023/06/06 10:28:26;;;;;;;;;;;;;;;33.79;27.01;100826.91;5011667;28;7191;-73
2023/06/06 10:31:03;;;;;;;;;;;;;;;34.06;26.53;100824.88;5002961;28;6804;-74
2023/06/06 10:33:42;;;;;;;;;;;;;;;34.30;26.84;100815.88;4974470;28;7182;-74
2023/06/06 10:36:13;;;;;;;;;;;;;;;34.63;26.38;100812.59;4951996;28;7471;-74
2023/06/06 10:38:39;;;;;;;;;;;;;;;34.78;25.68;100816.34;4964853;28;6828;-74
2023/06/06 10:41:16;;;;;;;;;;;;;;;34.74;25.69;100809.44;4960629;28;7444;-74
2023/06/06 10:43:41;;;;;;;;;;;;;;;34.69;26.07;100806.13;4967743;28;6820;-74
2023/06/06 10:46:08;;;;;;;;;;;;;;;34.69;25.53;100807.00;4964648;28;7589;-74
2023/06/06 10:48:42;;;;;;;;;;;;;;;34.66;25.37;100800.97;4984886;28;7442;-74
2023/06/06 10:51:31;;;;;;;;;;;;;;;34.68;25.93;100799.09;4952876;28;7285;-74
2023/06/06 10:54:17;;;;;;;;;;;;;;;34.92;26.00;100799.72;4993661;28;6983;-74
2023/06/06 10:56:50;;;;;;;;;;;;;;;35.29;25.76;100810.38;4958738;28;6792;-73
2023/06/06 10:59:16;;;;;;;;;;;;;;;35.54;24.64;100798.50;4981672;28;7314;-74
2023/06/06 11:01:45;;;;;;;;;;;;;;;35.63;24.97;100794.50;4984281;28;6970;-74
2023/06/06 11:04:22;;;;;;;;;;;;;;;35.74;24.63;100794.84;4985609;28;7439;-74
2023/06/06 11:06:50;;;;;;;;;;;;;;;35.81;24.57;100795.38;4963088;28;7232;-74
2023/06/06 11:09:28;;;;;;;;;;;;;;;36.01;24.47;100791.63;4996351;28;6988;-74
2023/06/06 11:12:11;;;;;;;;;;;;;;;36.18;24.54;100797.91;4961525;28;7019;-74
2023/06/06 11:15:05;;;;;;;;;;;;;;;36.32;24.48;100790.03;4964033;28;7350;-74
2023/06/06 11:17:55;;;;;;;;;;;;;;;36.36;23.84;100788.03;4960068;28;6832;-75
2023/06/06 11:20:24;;;;;;;;;;;;;;;36.36;24.02;100786.22;4988128;28;6987;-75
2023/06/06 11:23:01;;;;;;;;;;;;;;;36.36;23.66;100786.22;4963908;28;6824;-75
2023/06/06 11:25:30;;;;;;;;;;;;;;;36.37;23.55;100787.94;4944513;28;7076;-74
2023/06/06 11:27:57;;;;;;;;;;;;;;;36.32;23.78;100784.69;4944126;28;6990;-75
2023/06/06 11:30:24;;;;;;;;;;;;;;;36.16;23.55;100789.97;4963869;28;6793;-74
2023/06/06 11:32:51;;;;;;;;;;;;;;;36.03;23.13;100781.75;4989509;28;7177;-75
2023/06/06 11:35:18;;;;;;;;;;;;;;;36.08;23.48;100782.41;4952085;28;6998;-75
2023/06/06 11:37:44;;;;;;;;;;;;;;;36.15;22.96;100782.91;4988370;28;6784;-75
2023/06/06 11:40:11;;;;;;;;;;;;;;;36.26;23.27;100788.53;4990689;28;7362;-74
2023/06/06 11:42:43;;;;;;;;;;;;;;;36.22;22.68;100778.97;4989798;28;6856;-74
2023/06/06 11:45:14;;;;;;;;;;;;;;;36.16;22.28;100781.13;4979421;28;7163;-74
2023/06/06 11:47:40;;;;;;;;;;;;;;;36.08;22.48;100776.22;4995996;28;6979;-73
2023/06/06 11:50:06;;;;;;;;;;;;;;;35.96;21.82;100783.88;4984966;28;7375;-74
2023/06/06 11:52:47;;;;;;;;;;;;;;;35.76;21.92;100781.41;4972580;28;6995;-74
2023/06/06 11:55:13;;;;;;;;;;;;;;;35.55;22.14;100779.78;4977189;28;7071;-74
2023/06/06 11:57:39;;;;;;;;;;;;;;;35.46;22.38;100782.91;4964624;28;6787;-73
2023/06/06 12:00:15;;;;;;;;;;;;;;;35.38;22.26;100782.44;4964273;28;7233;-73
2023/06/06 12:02:41;;;;;;;;;;;;;;;35.19;21.86;100778.03;4964050;28;11504;-74
2023/06/06 12:05:25;;;;;;;;;;;;;;;35.24;22.30;100780.47;4996548;28;7314;-74
2023/06/06 12:07:58;;;;;;;;;;;;;;;35.41;22.43;100776.94;4968558;28;6872;-74
2023/06/06 12:10:30;;;;;;;;;;;;;;;35.59;21.86;100777.84;4949576;28;6987;-73
2023/06/06 12:12:57;;;;;;;;;;;;;;;35.62;22.35;100782.13;4990491;28;6796;-75
2023/06/06 12:15:42;;;;;;;;;;;;;;;35.59;21.97;100773.34;4943851;28;7010;-74
2023/06/06 12:18:08;;;;;;;;;;;;;;;35.62;21.71;100768.78;4984286;28;6892;-75
2023/06/06 12:20:33;;;;;;;;;;;;;;;35.75;22.25;100775.22;4982830;28;6939;-74
2023/06/06 12:22:59;;;;;;;;;;;;;;;35.81;21.92;100768.72;4991694;28;6768;-74
2023/06/06 12:25:27;;;;;;;;;;;;;;;35.86;22.27;100762.19;4981790;28;6969;-74
2023/06/06 12:27:54;;;;;;;;;;;;;;;36.01;21.99;100764.97;4966840;28;7065;-75
2023/06/06 12:30:32;;;;;;;;;;;;;;;36.23;21.75;100753.19;4978976;28;7201;-74
2023/06/06 12:33:02;;;;;;;;;;;;;;;36.35;21.35;100751.63;4993135;28;6987;-74
2023/06/06 12:35:28;;;;;;;;;;;;;;;36.33;21.36;100751.72;4951308;28;7266;-75
2023/06/06 12:37:55;;;;;;;;;;;;;;;36.23;20.89;100750.50;4988081;28;6939;-75
2023/06/06 12:40:27;;;;;;;;;;;;;;;36.20;20.77;100754.19;4978254;28;6971;-74
2023/06/06 12:42:59;;;;;;;;;;;;;;;36.24;20.74;100757.56;4968162;28;6796;-75
2023/06/06 12:45:27;;;;;;;;;;;;;;;36.25;20.26;100752.13;4987263;28;6800;-74
2023/06/06 12:47:55;;;;;;;;;;;;;;;36.11;20.35;100750.22;4946152;28;7262;-74
2023/06/06 12:50:22;;;;;;;;;;;;;;;35.97;20.10;100748.25;4973972;28;7306;-74
2023/06/06 12:52:50;;;;;;;;;;;;;;;35.93;19.55;100751.22;4982287;28;7034;-74